sensor_id;sensor_type;location;lat;lon;timestamp;pressure;altitude;pressure_sealevel;temperature;humidity
48846;BME280;34665;51.886;5.436;2023-03-24T00:00:31;99668.47;;;17.38;100.00
48846;BME280;34665;51.886;5.436;2023-03-24T00:02:57;99675.25;;;17.36;100.00
48846;BME280;34665;51.886;5.436;2023-03-24T00:05:25;99664.44;;;17.36;100.00
48846;BME280;34665;51.886;5.436;2023-03-24T00:07:52;99668.75;;;17.37;100.00
48846;BME280;34665;51.886;5.436;2023-03-24T00:10:18;99661.44;;;17.16;100.00
48846;BME280;34665;51.886;5.436;2023-03-24T00:12:45;99651.44;;;17.06;100.00
48846;BME280;34665;51.886;5.436;2023-03-24T00:15:12;99686.56;;;17.27;100.00
48846;BME280;34665;51.886;5.436;2023-03-24T00:17:37;99645.75;;;17.08;100.00
48846;BME280;34665;51.886;5.436;2023-03-24T00:20:05;99642.25;;;17.02;100.00
48846;BME280;34665;51.886;5.436;2023-03-24T00:22:40;99655.25;;;17.21;100.00
48846;BME280;34665;51.886;5.436;2023-03-24T00:25:09;99661.72;;;17.20;100.00
48846;BME280;34665;51.886;5.436;2023-03-24T00:27:35;99633.34;;;17.17;100.00
48846;BME280;34665;51.886;5.436;2023-03-24T00:30:03;99622.28;;;17.34;100.00
48846;BME280;34665;51.886;5.436;2023-03-24T00:32:29;99624.44;;;17.27;100.00
48846;BME280;34665;51.886;5.436;2023-03-24T00:34:54;99627.69;;;17.34;100.00
48846;BME280;34665;51.886;5.436;2023-03-24T00:37:20;99605.78;;;17.15;100.00
48846;BME280;34665;51.886;5.436;2023-03-24T00:39:45;99617.44;;;17.37;100.00
48846;BME280;34665;51.886;5.436;2023-03-24T00:42:11;99625.53;;;17.31;100.00
48846;BME280;34665;51.886;5.436;2023-03-24T00:44:38;99621.19;;;17.51;100.00
48846;BME280;34665;51.886;5.436;2023-03-24T00:47:03;99598.50;;;17.47;100.00
48846;BME280;34665;51.886;5.436;2023-03-24T00:49:29;99593.63;;;17.44;100.00
48846;BME280;34665;51.886;5.436;2023-03-24T00:52:09;99582.84;;;17.33;100.00
48846;BME280;34665;51.886;5.436;2023-03-24T00:54:36;99588.22;;;17.59;100.00
48846;BME280;34665;51.886;5.436;2023-03-24T00:57:02;99593.31;;;17.71;100.00
48846;BME280;34665;51.886;5.436;2023-03-24T00:59:28;99583.94;;;17.32;100.00
48846;BME280;34665;51.886;5.436;2023-03-24T01:01:55;99584.44;;;17.40;100.00
48846;BME280;34665;51.886;5.436;2023-03-24T01:04:23;99565.25;;;17.52;100.00
48846;BME280;34665;51.886;5.436;2023-03-24T01:06:51;99554.66;;;17.66;100.00
48846;BME280;34665;51.886;5.436;2023-03-24T01:09:17;99573.09;;;17.58;100.00
48846;BME280;34665;51.886;5.436;2023-03-24T01:11:46;99569.03;;;17.56;100.00
48846;BME280;34665;51.886;5.436;2023-03-24T01:14:12;99554.44;;;17.36;100.00
48846;BME280;34665;51.886;5.436;2023-03-24T01:16:38;99592.81;;;17.38;100.00
48846;BME280;34665;51.886;5.436;2023-03-24T01:19:04;99542.28;;;17.54;100.00
48846;BME280;34665;51.886;5.436;2023-03-24T01:21:30;99561.19;;;17.44;100.00
48846;BME280;34665;51.886;5.436;2023-03-24T01:23:56;99552.28;;;17.48;100.00
48846;BME280;34665;51.886;5.436;2023-03-24T01:26:22;99535.50;;;17.57;100.00
48846;BME280;34665;51.886;5.436;2023-03-24T01:28:47;99557.66;;;17.69;100.00
48846;BME280;34665;51.886;5.436;2023-03-24T01:31:12;99545.50;;;17.61;100.00
48846;BME280;34665;51.886;5.436;2023-03-24T01:33:38;99551.47;;;17.53;100.00
48846;BME280;34665;51.886;5.436;2023-03-24T01:36:04;99553.59;;;17.61;100.00
48846;BME280;34665;51.886;5.436;2023-03-24T01:38:30;99538.53;;;17.34;100.00
48846;BME280;34665;51.886;5.436;2023-03-24T01:40:55;99550.66;;;17.47;100.00
48846;BME280;34665;51.886;5.436;2023-03-24T01:43:22;99533.56;;;17.78;100.00
48846;BME280;34665;51.886;5.436;2023-03-24T01:45:57;99530.59;;;17.64;100.00
48846;BME280;34665;51.886;5.436;2023-03-24T01:48:29;99521.50;;;17.44;100.00
48846;BME280;34665;51.886;5.436;2023-03-24T01:51:01;99540.66;;;17.48;100.00
48846;BME280;34665;51.886;5.436;2023-03-24T01:53:27;99506.53;;;17.78;100.00
48846;BME280;34665;51.886;5.436;2023-03-24T01:55:54;99514.13;;;17.66;100.00
48846;BME280;34665;51.886;5.436;2023-03-24T01:58:24;99525.47;;;17.68;100.00
48846;BME280;34665;51.886;5.436;2023-03-24T02:01:04;99506.25;;;17.74;100.00
48846;BME280;34665;51.886;5.436;2023-03-24T02:03:50;99528.72;;;17.65;100.00
48846;BME280;34665;51.886;5.436;2023-03-24T02:06:17;99518.47;;;17.61;100.00
48846;BME280;34665;51.886;5.436;2023-03-24T02:08:50;99517.41;;;17.47;100.00
48846;BME280;34665;51.886;5.436;2023-03-24T02:11:18;99509.84;;;17.49;100.00
48846;BME280;34665;51.886;5.436;2023-03-24T02:13:51;99503.38;;;17.40;100.00
48846;BME280;34665;51.886;5.436;2023-03-24T02:19:07;99499.56;;;17.46;100.00
48846;BME280;34665;51.886;5.436;2023-03-24T02:27:01;99498.84;;;17.19;100.00
48846;BME280;34665;51.886;5.436;2023-03-24T02:32:24;99487.88;;;17.76;100.00
48846;BME280;34665;51.886;5.436;2023-03-24T02:42:54;99526.09;;;17.39;100.00
48846;BME280;34665;51.886;5.436;2023-03-24T02:50:19;99587.47;;;23.46;100.00
48846;BME280;34665;51.886;5.436;2023-03-24T02:55:25;99597.22;;;24.10;84.25
48846;BME280;34665;51.886;5.436;2023-03-24T03:00:38;99593.59;;;23.92;81.55
48846;BME280;34665;51.886;5.436;2023-03-24T03:03:20;99581.13;;;22.68;88.88
48846;BME280;34665;51.886;5.436;2023-03-24T03:05:50;99592.59;;;23.79;83.78
48846;BME280;34665;51.886;5.436;2023-03-24T03:08:17;99615.81;;;23.68;80.69
48846;BME280;34665;51.886;5.436;2023-03-24T03:10:46;99616.31;;;24.95;73.82
48846;BME280;34665;51.886;5.436;2023-03-24T03:13:14;99621.88;;;24.54;73.93
48846;BME280;34665;51.886;5.436;2023-03-24T03:15:45;99616.72;;;24.35;74.96
48846;BME280;34665;51.886;5.436;2023-03-24T03:18:17;99609.84;;;24.46;73.02
48846;BME280;34665;51.886;5.436;2023-03-24T03:20:49;99637.88;;;25.05;69.01
48846;BME280;34665;51.886;5.436;2023-03-24T03:23:28;99640.38;;;25.37;67.16
48846;BME280;34665;51.886;5.436;2023-03-24T03:25:57;99647.03;;;25.00;66.74
48846;BME280;34665;51.886;5.436;2023-03-24T03:28:31;99643.66;;;25.95;66.74
48846;BME280;34665;51.886;5.436;2023-03-24T03:31:01;99635.09;;;25.31;63.71
48846;BME280;34665;51.886;5.436;2023-03-24T03:33:40;99647.03;;;24.16;64.26
48846;BME280;34665;51.886;5.436;2023-03-24T03:41:21;99662.84;;;22.82;72.02
48846;BME280;34665;51.886;5.436;2023-03-24T03:43:48;99679.22;;;24.28;63.86
48846;BME280;34665;51.886;5.436;2023-03-24T03:46:14;99703.06;;;22.62;72.57
48846;BME280;34665;51.886;5.436;2023-03-24T03:48:41;99687.69;;;24.17;69.69
48846;BME280;34665;51.886;5.436;2023-03-24T03:51:07;99700.41;;;24.89;64.38
48846;BME280;34665;51.886;5.436;2023-03-24T03:53:56;99724.19;;;21.96;72.30
48846;BME280;34665;51.886;5.436;2023-03-24T03:56:22;99707.38;;;23.14;68.86
48846;BME280;34665;51.886;5.436;2023-03-24T03:59:00;99711.59;;;23.34;70.04
48846;BME280;34665;51.886;5.436;2023-03-24T04:01:27;99703.06;;;22.99;68.98
48846;BME280;34665;51.886;5.436;2023-03-24T04:04:29;99722.94;;;22.63;69.40
48846;BME280;34665;51.886;5.436;2023-03-24T04:07:54;99726.50;;;25.39;64.15
48846;BME280;34665;51.886;5.436;2023-03-24T04:13:29;99735.59;;;24.24;67.46
48846;BME280;34665;51.886;5.436;2023-03-24T04:27:29;99762.22;;;23.13;59.32
48846;BME280;34665;51.886;5.436;2023-03-24T04:32:04;99775.94;;;21.90;68.53
48846;BME280;34665;51.886;5.436;2023-03-24T04:34:35;99761.09;;;22.16;66.87
48846;BME280;34665;51.886;5.436;2023-03-24T04:37:23;99771.47;;;22.61;66.12
48846;BME280;34665;51.886;5.436;2023-03-24T04:40:00;99791.66;;;26.16;57.35
48846;BME280;34665;51.886;5.436;2023-03-24T04:42:35;99777.78;;;24.81;64.13
48846;BME280;34665;51.886;5.436;2023-03-24T04:45:02;99766.66;;;23.37;56.25
48846;BME280;34665;51.886;5.436;2023-03-24T04:47:48;99782.50;;;20.15;74.62
48846;BME280;34665;51.886;5.436;2023-03-24T04:50:27;99766.91;;;20.51;72.17
48846;BME280;34665;51.886;5.436;2023-03-24T04:52:58;99766.34;;;22.12;62.33
48846;BME280;34665;51.886;5.436;2023-03-24T04:55:28;99774.56;;;20.97;71.46
48846;BME280;34665;51.886;5.436;2023-03-24T04:57:56;99774.25;;;20.80;73.52
48846;BME280;34665;51.886;5.436;2023-03-24T05:00:22;99786.56;;;21.34;69.84
48846;BME280;34665;51.886;5.436;2023-03-24T05:02:48;99778.06;;;20.73;73.73
48846;BME280;34665;51.886;5.436;2023-03-24T05:05:23;99787.44;;;21.87;71.24
48846;BME280;34665;51.886;5.436;2023-03-24T05:07:48;99781.16;;;20.91;74.01
48846;BME280;34665;51.886;5.436;2023-03-24T05:10:15;99788.72;;;20.45;73.44
48846;BME280;34665;51.886;5.436;2023-03-24T05:12:47;99793.72;;;20.33;72.20
48846;BME280;34665;51.886;5.436;2023-03-24T05:15:18;99826.25;;;21.16;72.71
48846;BME280;34665;51.886;5.436;2023-03-24T05:17:46;99814.75;;;21.82;65.05
48846;BME280;34665;51.886;5.436;2023-03-24T05:20:11;99807.13;;;22.31;67.58
48846;BME280;34665;51.886;5.436;2023-03-24T05:22:41;99796.44;;;21.30;69.15
48846;BME280;34665;51.886;5.436;2023-03-24T05:25:06;99800.03;;;20.53;75.91
48846;BME280;34665;51.886;5.436;2023-03-24T05:27:32;99821.91;;;23.00;63.53
48846;BME280;34665;51.886;5.436;2023-03-24T05:30:06;99830.50;;;22.80;61.94
48846;BME280;34665;51.886;5.436;2023-03-24T05:32:34;99828.22;;;21.11;65.04
48846;BME280;34665;51.886;5.436;2023-03-24T05:35:00;99835.34;;;23.11;61.23
48846;BME280;34665;51.886;5.436;2023-03-24T05:37:30;99830.94;;;22.40;63.00
48846;BME280;34665;51.886;5.436;2023-03-24T05:39:56;99835.97;;;22.80;61.24
48846;BME280;34665;51.886;5.436;2023-03-24T05:42:43;99835.53;;;21.34;67.57
48846;BME280;34665;51.886;5.436;2023-03-24T05:45:13;99849.41;;;22.90;60.62
48846;BME280;34665;51.886;5.436;2023-03-24T05:47:39;99838.16;;;22.49;62.07
48846;BME280;34665;51.886;5.436;2023-03-24T05:50:05;99846.13;;;23.44;59.23
48846;BME280;34665;51.886;5.436;2023-03-24T05:52:32;99850.38;;;23.36;57.93
48846;BME280;34665;51.886;5.436;2023-03-24T05:55:12;99856.06;;;22.84;59.73
48846;BME280;34665;51.886;5.436;2023-03-24T05:57:41;99861.19;;;20.80;68.15
48846;BME280;34665;51.886;5.436;2023-03-24T06:00:22;99850.91;;;21.63;64.00
48846;BME280;34665;51.886;5.436;2023-03-24T06:02:56;99866.91;;;21.02;65.89
48846;BME280;34665;51.886;5.436;2023-03-24T06:05:36;99856.53;;;20.51;70.64
48846;BME280;34665;51.886;5.436;2023-03-24T06:08:03;99846.19;;;20.82;70.15
48846;BME280;34665;51.886;5.436;2023-03-24T06:10:31;99851.50;;;20.39;72.51
48846;BME280;34665;51.886;5.436;2023-03-24T06:12:58;99866.63;;;20.15;74.25
48846;BME280;34665;51.886;5.436;2023-03-24T06:15:24;99868.06;;;21.83;66.78
48846;BME280;34665;51.886;5.436;2023-03-24T06:17:55;99882.66;;;21.05;67.95
48846;BME280;34665;51.886;5.436;2023-03-24T06:20:27;99885.59;;;21.53;68.02
48846;BME280;34665;51.886;5.436;2023-03-24T06:23:08;99879.41;;;21.03;68.53
48846;BME280;34665;51.886;5.436;2023-03-24T06:25:47;99888.97;;;21.44;67.55
48846;BME280;34665;51.886;5.436;2023-03-24T06:28:20;99887.59;;;22.57;63.08
48846;BME280;34665;51.886;5.436;2023-03-24T06:30:46;99878.31;;;21.48;66.90
48846;BME280;34665;51.886;5.436;2023-03-24T06:33:19;99881.59;;;21.45;66.03
48846;BME280;34665;51.886;5.436;2023-03-24T06:35:47;99938.69;;;23.54;57.15
48846;BME280;34665;51.886;5.436;2023-03-24T06:38:15;99900.00;;;23.75;57.87
48846;BME280;34665;51.886;5.436;2023-03-24T06:40:42;99897.84;;;23.21;58.18
48846;BME280;34665;51.886;5.436;2023-03-24T06:43:08;99907.25;;;23.94;54.60
48846;BME280;34665;51.886;5.436;2023-03-24T06:45:37;99899.25;;;21.28;62.86
48846;BME280;34665;51.886;5.436;2023-03-24T06:48:04;99927.50;;;21.76;62.55
48846;BME280;34665;51.886;5.436;2023-03-24T06:50:31;99919.75;;;22.02;62.34
48846;BME280;34665;51.886;5.436;2023-03-24T06:53:04;99922.31;;;21.06;65.51
48846;BME280;34665;51.886;5.436;2023-03-24T06:55:31;99911.31;;;21.17;65.56
48846;BME280;34665;51.886;5.436;2023-03-24T06:57:57;99920.22;;;21.47;64.71
48846;BME280;34665;51.886;5.436;2023-03-24T07:00:35;99921.63;;;21.63;63.81
48846;BME280;34665;51.886;5.436;2023-03-24T07:03:19;99923.09;;;21.56;65.03
48846;BME280;34665;51.886;5.436;2023-03-24T07:06:07;99915.88;;;21.46;65.61
48846;BME280;34665;51.886;5.436;2023-03-24T07:08:35;99915.03;;;20.38;67.75
48846;BME280;34665;51.886;5.436;2023-03-24T07:11:00;99932.19;;;22.94;65.61
48846;BME280;34665;51.886;5.436;2023-03-24T07:13:27;99937.13;;;20.60;67.11
48846;BME280;34665;51.886;5.436;2023-03-24T07:16:01;99938.03;;;21.58;64.84
48846;BME280;34665;51.886;5.436;2023-03-24T07:18:26;99945.00;;;21.70;64.60
48846;BME280;34665;51.886;5.436;2023-03-24T07:20:57;99936.97;;;22.17;64.23
48846;BME280;34665;51.886;5.436;2023-03-24T07:23:22;99955.03;;;20.96;66.04
48846;BME280;34665;51.886;5.436;2023-03-24T07:26:09;99971.72;;;24.17;57.12
48846;BME280;34665;51.886;5.436;2023-03-24T07:28:47;99952.28;;;21.50;62.89
48846;BME280;34665;51.886;5.436;2023-03-24T07:31:30;99952.19;;;22.37;63.12
48846;BME280;34665;51.886;5.436;2023-03-24T07:34:03;99958.81;;;21.73;64.88
48846;BME280;34665;51.886;5.436;2023-03-24T07:36:29;99946.25;;;21.29;65.68
48846;BME280;34665;51.886;5.436;2023-03-24T07:38:56;99960.38;;;21.55;64.46
48846;BME280;34665;51.886;5.436;2023-03-24T07:41:29;99954.94;;;21.31;63.99
48846;BME280;34665;51.886;5.436;2023-03-24T07:43:58;99948.06;;;21.14;66.63
48846;BME280;34665;51.886;5.436;2023-03-24T07:46:30;99946.41;;;20.54;68.38
48846;BME280;34665;51.886;5.436;2023-03-24T07:48:55;99966.06;;;21.59;65.98
48846;BME280;34665;51.886;5.436;2023-03-24T07:51:22;99963.03;;;23.23;59.46
48846;BME280;34665;51.886;5.436;2023-03-24T07:53:57;99963.88;;;24.61;56.71
48846;BME280;34665;51.886;5.436;2023-03-24T07:56:40;99964.00;;;22.66;59.79
48846;BME280;34665;51.886;5.436;2023-03-24T07:59:07;99970.16;;;21.56;65.55
48846;BME280;34665;51.886;5.436;2023-03-24T08:01:48;99957.59;;;22.04;65.99
48846;BME280;34665;51.886;5.436;2023-03-24T08:04:16;99967.28;;;22.10;63.69
48846;BME280;34665;51.886;5.436;2023-03-24T08:06:56;99963.50;;;21.68;64.11
48846;BME280;34665;51.886;5.436;2023-03-24T08:09:22;99978.03;;;21.33;62.96
48846;BME280;34665;51.886;5.436;2023-03-24T08:11:49;99979.28;;;22.09;64.23
48846;BME280;34665;51.886;5.436;2023-03-24T08:14:15;99973.72;;;22.19;63.51
48846;BME280;34665;51.886;5.436;2023-03-24T08:16:40;99977.28;;;21.52;63.20
48846;BME280;34665;51.886;5.436;2023-03-24T08:19:06;99981.13;;;22.33;64.38
48846;BME280;34665;51.886;5.436;2023-03-24T08:21:31;99976.34;;;22.05;64.23
48846;BME280;34665;51.886;5.436;2023-03-24T08:23:56;99986.75;;;21.30;63.98
48846;BME280;34665;51.886;5.436;2023-03-24T08:26:22;99993.31;;;21.29;63.34
48846;BME280;34665;51.886;5.436;2023-03-24T08:28:50;99992.84;;;20.92;64.95
48846;BME280;34665;51.886;5.436;2023-03-24T08:31:15;99976.22;;;20.99;65.22
48846;BME280;34665;51.886;5.436;2023-03-24T08:33:41;99991.50;;;21.44;64.09
48846;BME280;34665;51.886;5.436;2023-03-24T08:36:07;99988.56;;;21.65;62.87
48846;BME280;34665;51.886;5.436;2023-03-24T08:38:32;99997.16;;;24.41;59.58
48846;BME280;34665;51.886;5.436;2023-03-24T08:41:01;99990.56;;;21.54;61.47
48846;BME280;34665;51.886;5.436;2023-03-24T08:43:31;100006.84;;;25.56;53.33
48846;BME280;34665;51.886;5.436;2023-03-24T08:45:57;100008.56;;;21.98;56.88
48846;BME280;34665;51.886;5.436;2023-03-24T08:48:23;100007.44;;;21.99;58.39
48846;BME280;34665;51.886;5.436;2023-03-24T08:50:48;100014.69;;;21.66;60.15
48846;BME280;34665;51.886;5.436;2023-03-24T08:53:14;100011.13;;;22.85;58.48
48846;BME280;34665;51.886;5.436;2023-03-24T08:55:42;100031.69;;;22.01;59.43
48846;BME280;34665;51.886;5.436;2023-03-24T08:58:13;100013.03;;;21.40;58.96
48846;BME280;34665;51.886;5.436;2023-03-24T09:00:39;100030.28;;;22.23;57.44
48846;BME280;34665;51.886;5.436;2023-03-24T09:03:04;100025.00;;;21.63;58.38
48846;BME280;34665;51.886;5.436;2023-03-24T09:05:31;100051.59;;;21.96;57.97
48846;BME280;34665;51.886;5.436;2023-03-24T09:07:56;100040.03;;;22.48;57.43
48846;BME280;34665;51.886;5.436;2023-03-24T09:10:24;100050.63;;;22.49;55.68
48846;BME280;34665;51.886;5.436;2023-03-24T09:12:50;100067.13;;;22.58;54.48
48846;BME280;34665;51.886;5.436;2023-03-24T09:15:16;100045.50;;;23.33;54.76
48846;BME280;34665;51.886;5.436;2023-03-24T09:17:41;100050.75;;;27.23;47.82
48846;BME280;34665;51.886;5.436;2023-03-24T09:20:07;100052.06;;;23.46;52.90
48846;BME280;34665;51.886;5.436;2023-03-24T09:22:42;100063.06;;;23.08;53.25
48846;BME280;34665;51.886;5.436;2023-03-24T09:25:10;100048.63;;;24.25;49.23
48846;BME280;34665;51.886;5.436;2023-03-24T09:27:36;100069.63;;;24.98;50.49
48846;BME280;34665;51.886;5.436;2023-03-24T09:30:02;100065.69;;;24.30;50.04
48846;BME280;34665;51.886;5.436;2023-03-24T09:32:27;100084.16;;;25.07;48.56
48846;BME280;34665;51.886;5.436;2023-03-24T09:34:52;100067.34;;;24.54;49.53
48846;BME280;34665;51.886;5.436;2023-03-24T09:37:18;100064.53;;;25.68;48.17
48846;BME280;34665;51.886;5.436;2023-03-24T09:39:43;100072.50;;;24.56;49.09
48846;BME280;34665;51.886;5.436;2023-03-24T09:42:14;100065.97;;;25.34;48.32
48846;BME280;34665;51.886;5.436;2023-03-24T09:44:43;100071.59;;;24.24;48.57
48846;BME280;34665;51.886;5.436;2023-03-24T09:49:54;100081.59;;;25.11;48.44
48846;BME280;34665;51.886;5.436;2023-03-24T09:52:23;100071.97;;;26.61;45.93
48846;BME280;34665;51.886;5.436;2023-03-24T09:54:55;100091.53;;;26.01;45.99
48846;BME280;34665;51.886;5.436;2023-03-24T09:57:33;100077.09;;;26.71;44.30
48846;BME280;34665;51.886;5.436;2023-03-24T10:00:24;100079.84;;;26.71;43.62
48846;BME280;34665;51.886;5.436;2023-03-24T10:02:47;100080.34;;;26.91;43.25
48846;BME280;34665;51.886;5.436;2023-03-24T10:05:36;100089.59;;;28.21;41.00
48846;BME280;34665;51.886;5.436;2023-03-24T10:08:03;100092.41;;;28.03;41.36
48846;BME280;34665;51.886;5.436;2023-03-24T10:10:47;100088.75;;;27.03;41.90
48846;BME280;34665;51.886;5.436;2023-03-24T10:13:40;100098.41;;;26.57;42.29
48846;BME280;34665;51.886;5.436;2023-03-24T10:16:09;100088.22;;;25.73;43.95
48846;BME280;34665;51.886;5.436;2023-03-24T10:18:41;100073.00;;;23.93;46.11
48846;BME280;34665;51.886;5.436;2023-03-24T10:21:20;100084.72;;;25.18;45.08
48846;BME280;34665;51.886;5.436;2023-03-24T10:28:44;100084.75;;;24.95;45.75
48846;BME280;34665;51.886;5.436;2023-03-24T10:31:14;100081.34;;;27.52;43.05
48846;BME280;34665;51.886;5.436;2023-03-24T10:33:43;100085.19;;;26.59;41.91
48846;BME280;34665;51.886;5.436;2023-03-24T10:36:15;100108.56;;;26.47;43.22
48846;BME280;34665;51.886;5.436;2023-03-24T10:38:42;100076.50;;;25.90;45.11
48846;BME280;34665;51.886;5.436;2023-03-24T10:41:11;100104.88;;;24.62;46.71
48846;BME280;34665;51.886;5.436;2023-03-24T10:43:39;100093.34;;;25.34;47.99
48846;BME280;34665;51.886;5.436;2023-03-24T10:46:07;100111.38;;;25.12;47.55
48846;BME280;34665;51.886;5.436;2023-03-24T10:51:43;100093.63;;;23.99;50.38
48846;BME280;34665;51.886;5.436;2023-03-24T10:54:34;100095.25;;;24.65;54.72
48846;BME280;34665;51.886;5.436;2023-03-24T10:59:24;100113.31;;;23.21;100.00
48846;BME280;34665;51.886;5.436;2023-03-24T11:04:33;100118.34;;;22.95;96.73
48846;BME280;34665;51.886;5.436;2023-03-24T11:07:03;100112.16;;;24.16;88.63
48846;BME280;34665;51.886;5.436;2023-03-24T11:09:36;100123.09;;;25.27;87.78
48846;BME280;34665;51.886;5.436;2023-03-24T11:12:02;100120.22;;;24.22;86.49
48846;BME280;34665;51.886;5.436;2023-03-24T11:14:28;100109.72;;;24.80;84.12
48846;BME280;34665;51.886;5.436;2023-03-24T11:17:02;100118.56;;;27.14;77.36
48846;BME280;34665;51.886;5.436;2023-03-24T11:19:33;100115.63;;;28.44;73.47
48846;BME280;34665;51.886;5.436;2023-03-24T11:22:01;100114.88;;;28.56;69.80
48846;BME280;34665;51.886;5.436;2023-03-24T11:24:28;100118.25;;;28.83;62.86
48846;BME280;34665;51.886;5.436;2023-03-24T11:26:57;100118.88;;;31.16;59.98
48846;BME280;34665;51.886;5.436;2023-03-24T11:29:24;100113.69;;;28.66;61.93
48846;BME280;34665;51.886;5.436;2023-03-24T11:31:53;100117.72;;;26.25;62.82
48846;BME280;34665;51.886;5.436;2023-03-24T11:34:22;100104.78;;;24.17;74.36
48846;BME280;34665;51.886;5.436;2023-03-24T11:36:52;100091.97;;;24.77;78.09
48846;BME280;34665;51.886;5.436;2023-03-24T11:39:19;100095.97;;;23.92;78.52
48846;BME280;34665;51.886;5.436;2023-03-24T11:46:42;100178.69;;;22.49;100.00
48846;BME280;34665;51.886;5.436;2023-03-24T11:49:09;100196.09;;;24.53;100.00
48846;BME280;34665;51.886;5.436;2023-03-24T11:51:36;100164.28;;;21.95;100.00
48846;BME280;34665;51.886;5.436;2023-03-24T11:54:12;100189.34;;;29.82;100.00
48846;BME280;34665;51.886;5.436;2023-03-24T11:56:40;100176.09;;;34.09;44.49
48846;BME280;34665;51.886;5.436;2023-03-24T12:01:59;100165.50;;;30.77;40.88
48846;BME280;34665;51.886;5.436;2023-03-24T12:17:15;100125.28;;;28.72;49.45
48846;BME280;34665;51.886;5.436;2023-03-24T12:22:16;100121.09;;;29.08;50.33
48846;BME280;34665;51.886;5.436;2023-03-24T12:24:48;100130.88;;;31.37;46.86
48846;BME280;34665;51.886;5.436;2023-03-24T12:27:24;100130.06;;;32.52;46.76
48846;BME280;34665;51.886;5.436;2023-03-24T12:30:01;100141.59;;;35.81;43.74
48846;BME280;34665;51.886;5.436;2023-03-24T12:32:34;100141.56;;;36.41;38.75
48846;BME280;34665;51.886;5.436;2023-03-24T12:42:53;100111.47;;;29.48;47.95
48846;BME280;34665;51.886;5.436;2023-03-24T12:50:35;100089.19;;;28.73;49.86
48846;BME280;34665;51.886;5.436;2023-03-24T12:55:38;100083.53;;;30.78;45.74
48846;BME280;34665;51.886;5.436;2023-03-24T13:00:36;100104.47;;;28.19;48.71
48846;BME280;34665;51.886;5.436;2023-03-24T13:03:14;100192.19;;;34.27;100.00
48846;BME280;34665;51.886;5.436;2023-03-24T13:05:44;100098.47;;;24.67;100.00
48846;BME280;34665;51.886;5.436;2023-03-24T13:08:22;100088.75;;;25.20;91.97
48846;BME280;34665;51.886;5.436;2023-03-24T13:10:55;100105.88;;;30.07;66.41
48846;BME280;34665;51.886;5.436;2023-03-24T13:13:42;100086.31;;;26.93;57.38
48846;BME280;34665;51.886;5.436;2023-03-24T13:16:10;100083.53;;;25.65;58.21
48846;BME280;34665;51.886;5.436;2023-03-24T13:18:38;100076.66;;;24.53;65.65
48846;BME280;34665;51.886;5.436;2023-03-24T13:21:10;100076.25;;;30.03;53.54
48846;BME280;34665;51.886;5.436;2023-03-24T13:28:33;100069.50;;;27.99;55.74
48846;BME280;34665;51.886;5.436;2023-03-24T13:31:03;100071.97;;;26.52;56.83
48846;BME280;34665;51.886;5.436;2023-03-24T13:33:29;100071.00;;;26.92;59.94
48846;BME280;34665;51.886;5.436;2023-03-24T13:36:07;100070.97;;;27.66;61.53
48846;BME280;34665;51.886;5.436;2023-03-24T13:38:37;100072.88;;;27.66;62.10
48846;BME280;34665;51.886;5.436;2023-03-24T13:41:03;100069.44;;;27.77;60.69
48846;BME280;34665;51.886;5.436;2023-03-24T13:43:29;100099.13;;;27.37;62.21
48846;BME280;34665;51.886;5.436;2023-03-24T13:46:00;100103.16;;;25.58;82.80
48846;BME280;34665;51.886;5.436;2023-03-24T13:48:31;100096.31;;;24.41;79.10
48846;BME280;34665;51.886;5.436;2023-03-24T13:51:02;100083.59;;;23.95;74.54
48846;BME280;34665;51.886;5.436;2023-03-24T13:53:34;100093.41;;;23.96;67.95
48846;BME280;34665;51.886;5.436;2023-03-24T13:56:00;100095.75;;;24.16;72.65
48846;BME280;34665;51.886;5.436;2023-03-24T13:58:27;100101.41;;;22.40;73.86
48846;BME280;34665;51.886;5.436;2023-03-24T14:03:34;100101.38;;;24.85;69.72
48846;BME280;34665;51.886;5.436;2023-03-24T14:06:04;100117.16;;;23.20;69.82
48846;BME280;34665;51.886;5.436;2023-03-24T14:11:08;100132.06;;;22.89;73.70
48846;BME280;34665;51.886;5.436;2023-03-24T14:13:35;100121.31;;;21.92;76.58
48846;BME280;34665;51.886;5.436;2023-03-24T14:16:25;100116.38;;;23.00;76.34
48846;BME280;34665;51.886;5.436;2023-03-24T14:18:50;100091.91;;;23.61;71.37
48846;BME280;34665;51.886;5.436;2023-03-24T14:21:16;100093.50;;;25.60;75.31
48846;BME280;34665;51.886;5.436;2023-03-24T14:23:52;100092.44;;;26.99;70.18
48846;BME280;34665;51.886;5.436;2023-03-24T14:28:46;100079.72;;;25.83;60.74
48846;BME280;34665;51.886;5.436;2023-03-24T14:36:28;100072.56;;;29.62;58.65
48846;BME280;34665;51.886;5.436;2023-03-24T14:39:11;100070.16;;;30.10;51.62
48846;BME280;34665;51.886;5.436;2023-03-24T14:41:42;100073.91;;;28.85;54.60
48846;BME280;34665;51.886;5.436;2023-03-24T14:44:09;100067.69;;;30.74;50.24
48846;BME280;34665;51.886;5.436;2023-03-24T14:49:20;100074.06;;;30.09;49.75
48846;BME280;34665;51.886;5.436;2023-03-24T14:54:28;100071.44;;;30.82;48.62
48846;BME280;34665;51.886;5.436;2023-03-24T14:56:56;100080.06;;;33.74;45.87
48846;BME280;34665;51.886;5.436;2023-03-24T14:59:28;100082.66;;;32.54;43.51
48846;BME280;34665;51.886;5.436;2023-03-24T15:01:58;100078.75;;;31.83;48.19
48846;BME280;34665;51.886;5.436;2023-03-24T15:04:25;100081.31;;;33.07;42.59
48846;BME280;34665;51.886;5.436;2023-03-24T15:06:51;100074.31;;;32.14;43.93
48846;BME280;34665;51.886;5.436;2023-03-24T15:09:16;100089.06;;;28.91;44.05
48846;BME280;34665;51.886;5.436;2023-03-24T15:11:44;100057.47;;;29.10;45.48
48846;BME280;34665;51.886;5.436;2023-03-24T15:16:38;100051.91;;;29.93;43.41
48846;BME280;34665;51.886;5.436;2023-03-24T15:19:19;100045.66;;;26.33;49.66
48846;BME280;34665;51.886;5.436;2023-03-24T15:21:50;100034.84;;;28.15;51.74